Time;durP1;ratioP1;P1;durP2;ratioP2;P2;SDS_P1;SDS_P2;PMS_P1;PMS_P2;Temp;Humidity;BMP_temperature;BMP_pressure;BME280_temperature;BME280_humidity;BME280_pressure;Samples;Min_cycle;Max_cycle;Signal;HPM_P1;HPM_P2
2023/01/01 00:01:39;;;;;;;158.25;70.10;;;;;;;9.78;100.00;102215.00;5009250;28;20076;-76
2023/01/01 00:04:10;;;;;;;112.97;55.92;;;;;;;9.78;100.00;102215.00;5009938;28;20133;-76
2023/01/01 00:06:35;;;;;;;116.97;54.67;;;;;;;9.77;100.00;102213.34;5009254;28;20112;-75
2023/01/01 00:11:45;;;;;;;101.57;45.17;;;;;;;9.75;100.00;102217.81;5000959;28;20076;-76
2023/01/01 00:14:10;;;;;;;97.45;43.55;;;;;;;9.76;100.00;102222.09;5013410;28;20037;-76
2023/01/01 00:16:36;;;;;;;97.65;46.65;;;;;;;9.75;100.00;102215.22;5011841;28;20365;-75
2023/01/01 00:19:02;;;;;;;109.95;50.22;;;;;;;9.71;100.00;102213.72;5010164;28;20033;-76
2023/01/01 00:21:27;;;;;;;99.35;43.97;;;;;;;9.72;100.00;102205.81;5008433;28;20045;-76
2023/01/01 00:23:53;;;;;;;94.85;43.78;;;;;;;9.75;100.00;102210.00;5013191;28;20045;-77
2023/01/01 00:26:18;;;;;;;109.32;44.55;;;;;;;9.77;100.00;102200.31;5012645;28;20061;-76
2023/01/01 00:28:44;;;;;;;99.72;43.13;;;;;;;9.78;100.00;102208.03;5009872;28;20037;-76
2023/01/01 00:31:18;;;;;;;100.03;42.97;;;;;;;9.77;100.00;102205.53;5011074;28;20029;-76
2023/01/01 00:33:54;;;;;;;127.25;48.47;;;;;;;9.76;100.00;102206.47;5009626;28;20032;-76
2023/01/01 00:36:22;;;;;;;128.00;47.53;;;;;;;9.76;100.00;102198.66;5007746;28;20381;-75
2023/01/01 00:38:47;;;;;;;111.85;48.53;;;;;;;9.76;100.00;102199.50;5017937;28;20114;-75
2023/01/01 00:41:15;;;;;;;102.93;45.85;;;;;;;9.77;100.00;102210.75;5014292;28;20057;-75
2023/01/01 00:43:41;;;;;;;103.13;46.30;;;;;;;9.76;100.00;102211.69;5011549;28;20028;-76
2023/01/01 00:46:08;;;;;;;111.38;48.00;;;;;;;9.74;100.00;102203.97;5014286;28;20084;-76
2023/01/01 00:48:33;;;;;;;109.78;45.35;;;;;;;9.72;100.00;102204.97;5015489;28;20061;-75
2023/01/01 00:50:59;;;;;;;113.25;45.35;;;;;;;9.73;100.00;102207.50;5006897;28;20103;-76
2023/01/01 00:53:24;;;;;;;143.23;53.30;;;;;;;9.72;100.00;102210.19;5008070;28;20029;-75
2023/01/01 00:55:51;;;;;;;133.98;57.33;;;;;;;9.70;100.00;102201.66;5012568;28;20025;-76
2023/01/01 00:58:17;;;;;;;125.90;50.00;;;;;;;9.68;100.00;102206.94;5014639;28;20045;-76
2023/01/01 01:00:44;;;;;;;100.40;47.15;;;;;;;9.71;100.00;102213.72;5013323;28;20067;-76
2023/01/01 01:03:26;;;;;;;112.45;48.08;;;;;;;9.73;100.00;102204.06;5014639;28;20026;-75
2023/01/01 01:06:01;;;;;;;103.50;42.65;;;;;;;9.71;100.00;102198.94;5008690;28;20029;-76
2023/01/01 01:08:28;;;;;;;93.00;42.58;;;;;;;9.71;100.00;102193.75;5017432;28;20034;-75
2023/01/01 01:10:54;;;;;;;98.03;43.85;;;;;;;9.71;100.00;102203.31;5010917;28;20115;-75
2023/01/01 01:13:20;;;;;;;109.03;46.25;;;;;;;9.73;100.00;102196.25;5014944;28;20485;-76
2023/01/01 01:15:46;;;;;;;85.38;41.00;;;;;;;9.71;100.00;102198.09;5008713;28;20092;-75
2023/01/01 01:18:12;;;;;;;86.93;36.65;;;;;;;9.73;100.00;102188.44;5014482;28;20052;-75
2023/01/01 01:20:37;;;;;;;95.05;37.35;;;;;;;9.74;100.00;102187.50;5009053;28;20087;-75
2023/01/01 01:23:03;;;;;;;116.20;44.33;;;;;;;9.74;100.00;102193.53;5013174;28;20037;-76
2023/01/01 01:25:29;;;;;;;128.15;45.47;;;;;;;9.73;100.00;102186.66;5009138;28;20030;-75
2023/01/01 01:27:54;;;;;;;112.88;44.10;;;;;;;9.74;100.00;102184.91;5012051;28;20026;-75
2023/01/01 01:30:20;;;;;;;117.47;49.28;;;;;;;9.75;100.00;102183.97;5007905;28;20034;-75
2023/01/01 01:32:45;;;;;;;111.20;49.35;;;;;;;9.75;100.00;102173.56;5012246;28;20341;-76
2023/01/01 01:35:11;;;;;;;119.25;44.10;;;;;;;9.76;100.00;102180.44;5009856;28;20041;-76
2023/01/01 01:37:36;;;;;;;110.88;45.70;;;;;;;9.74;100.00;102179.69;5009949;28;20038;-76
2023/01/01 01:40:02;;;;;;;115.32;47.10;;;;;;;9.73;100.00;102180.63;5006745;28;20034;-76
2023/01/01 01:42:27;;;;;;;106.65;41.88;;;;;;;9.73;100.00;102180.63;5017018;28;20041;-76
2023/01/01 01:44:57;;;;;;;107.80;40.33;;;;;;;9.72;100.00;102173.75;5010783;28;20030;-75
2023/01/01 01:47:41;;;;;;;102.28;38.83;;;;;;;9.70;100.00;102175.63;5010234;28;20124;-76
2023/01/01 01:50:15;;;;;;;86.82;37.65;;;;;;;9.67;100.00;102178.41;5012647;28;20048;-76
2023/01/01 01:53:02;;;;;;;112.97;41.05;;;;;;;9.65;100.00;102174.13;5019293;28;20034;-76
2023/01/01 01:55:29;;;;;;;109.82;40.17;;;;;;;9.68;100.00;102182.69;5009278;28;20034;-76
2023/01/01 01:57:55;;;;;;;95.43;38.50;;;;;;;9.65;100.00;102171.53;5013325;28;20104;-76
2023/01/01 02:00:21;;;;;;;96.10;38.13;;;;;;;9.63;100.00;102169.97;5015497;28;20527;-76
2023/01/01 02:03:01;;;;;;;81.50;35.92;;;;;;;9.62;100.00;102170.88;5012811;28;20113;-75
2023/01/01 02:05:28;;;;;;;97.90;35.30;;;;;;;9.65;100.00;102176.75;5006471;28;20033;-76
2023/01/01 02:07:54;;;;;;;123.38;40.42;;;;;;;9.67;100.00;102165.41;5016427;28;20442;-75
2023/01/01 02:10:19;;;;;;;100.18;39.50;;;;;;;9.63;100.00;102163.00;5010458;28;20025;-75
2023/01/01 02:12:45;;;;;;;99.43;36.75;;;;;;;9.60;100.00;102157.97;5019577;28;20029;-76
2023/01/01 02:15:11;;;;;;;94.68;35.72;;;;;;;9.62;100.00;102169.13;5011630;28;20500;-76
2023/01/01 02:17:51;;;;;;;92.07;34.50;;;;;;;9.62;100.00;102157.88;5016836;28;21050;-76
2023/01/01 02:20:35;;;;;;;104.68;36.92;;;;;;;9.58;100.00;102154.63;5011925;28;20077;-76
2023/01/01 02:23:47;;;;;;;92.55;36.63;;;;;;;9.57;100.00;102158.16;5015247;28;20421;-76
2023/01/01 02:26:47;;;;;;;79.90;33.03;;;;;;;9.58;100.00;102162.44;4969143;28;20099;-76
2023/01/01 02:29:15;;;;;;;157.68;42.45;;;;;;;9.62;100.00;102150.06;4975232;28;20042;-76
2023/01/01 02:31:49;;;;;;;120.55;36.88;;;;;;;9.63;100.00;102159.56;4971341;28;20042;-76
2023/01/01 02:34:19;;;;;;;130.30;42.70;;;;;;;9.63;100.00;102152.59;4971635;28;20520;-76
2023/01/01 02:36:51;;;;;;;109.95;41.53;;;;;;;9.65;100.00;102147.28;4973939;28;20049;-76
2023/01/01 02:39:21;;;;;;;88.32;35.65;;;;;;;9.64;100.00;102151.66;4974384;28;20547;-75
2023/01/01 02:41:52;;;;;;;114.15;40.10;;;;;;;9.64;100.00;102149.03;4974395;28;20653;-76
2023/01/01 02:44:20;;;;;;;132.55;43.05;;;;;;;9.64;100.00;102146.44;4971859;28;20049;-76
2023/01/01 02:46:45;;;;;;;126.60;41.33;;;;;;;9.64;100.00;102141.25;4970635;28;20130;-76
2023/01/01 02:49:11;;;;;;;123.38;39.30;;;;;;;9.63;100.00;102154.34;4971348;28;20355;-76
2023/01/01 02:51:45;;;;;;;114.15;41.63;;;;;;;9.61;100.00;102146.63;4974313;28;20161;-76
2023/01/01 02:54:13;;;;;;;106.30;38.67;;;;;;;9.61;100.00;102146.63;4971430;28;20450;-76
2023/01/01 02:57:21;;;;;;;116.35;38.83;;;;;;;9.60;100.00;102152.78;4969557;28;20034;-76
2023/01/01 03:00:23;;;;;;;88.35;35.63;;;;;;;9.60;100.00;102154.53;4986105;28;20100;-76
2023/01/01 03:03:07;;;;;;;81.55;31.98;;;;;;;9.60;100.00;102150.16;5011808;28;20038;-76
2023/01/01 03:08:48;;;;;;;77.78;30.58;;;;;;;9.61;100.00;102158.81;5011639;28;20083;-76
2023/01/01 03:11:17;;;;;;;86.57;38.08;;;;;;;9.62;100.00;102152.69;5002584;28;20038;-75
2023/01/01 03:14:01;;;;;;;86.65;39.28;;;;;;;9.58;100.00;102157.25;5011001;28;20080;-76
2023/01/01 03:16:35;;;;;;;90.50;39.75;;;;;;;9.60;100.00;102167.56;5013782;28;20037;-76
2023/01/01 03:19:10;;;;;;;98.55;36.63;;;;;;;9.62;100.00;102169.13;5012020;28;20121;-76
2023/01/01 03:21:50;;;;;;;100.38;36.25;;;;;;;9.61;100.00;102162.25;5010455;28;20041;-76
2023/01/01 03:24:24;;;;;;;115.60;37.45;;;;;;;9.60;100.00;102168.38;5010303;28;20038;-76
2023/01/01 03:26:54;;;;;;;88.25;33.30;;;;;;;9.61;100.00;102158.81;5013521;28;20033;-75
2023/01/01 03:29:22;;;;;;;93.32;35.95;;;;;;;9.63;100.00;102165.59;5015312;28;20121;-75
2023/01/01 03:31:51;;;;;;;99.82;34.97;;;;;;;9.65;100.00;102162.91;5016439;28;20079;-76
2023/01/01 03:34:22;;;;;;;92.82;31.20;;;;;;;9.66;100.00;102159.34;5020708;28;20048;-75
2023/01/01 03:36:54;;;;;;;87.15;32.17;;;;;;;9.64;100.00;102161.22;5011651;28;20038;-75
2023/01/01 03:39:24;;;;;;;77.93;30.38;;;;;;;9.65;100.00;102155.91;5010090;28;20485;-75
2023/01/01 03:42:14;;;;;;;102.05;36.30;;;;;;;9.64;100.00;102161.22;5015438;28;20038;-75
2023/01/01 03:44:47;;;;;;;99.93;36.22;;;;;;;9.63;100.00;102154.34;5013302;28;20037;-76
2023/01/01 03:47:14;;;;;;;87.07;36.33;;;;;;;9.61;100.00;102148.41;5015415;28;20037;-76
2023/01/01 03:49:40;;;;;;;90.03;30.42;;;;;;;9.62;100.00;102163.91;5010915;28;21010;-76
2023/01/01 03:52:29;;;;;;;92.20;35.00;;;;;;;9.60;100.00;102150.16;5011034;28;20112;-76
2023/01/01 03:55:22;;;;;;;85.88;32.92;;;;;;;9.57;100.00;102146.94;5007645;28;20022;-76
2023/01/01 03:58:09;;;;;;;91.55;32.65;;;;;;;9.58;100.00;102149.44;5001771;28;20462;-76
2023/01/01 04:00:39;;;;;;;81.43;29.10;;;;;;;9.63;100.00;102155.19;5014603;28;20041;-76
2023/01/01 04:03:09;;;;;;;71.97;29.35;;;;;;;9.64;100.00;102145.59;5004502;28;20037;-76
2023/01/01 04:05:38;;;;;;;75.85;30.42;;;;;;;9.61;100.00;102144.03;5011804;28;20128;-75
2023/01/01 04:08:03;;;;;;;89.15;32.63;;;;;;;9.63;100.00;102155.19;5012666;28;20099;-76
2023/01/01 04:10:31;;;;;;;77.95;28.75;;;;;;;9.65;100.00;102148.13;5013257;28;20042;-76
2023/01/01 04:12:57;;;;;;;78.40;30.33;;;;;;;9.61;100.00;102133.63;5010223;28;20030;-76
2023/01/01 04:15:25;;;;;;;71.55;28.42;;;;;;;9.60;100.00;102138.94;5017209;28;20113;-76
2023/01/01 04:17:51;;;;;;;82.72;30.85;;;;;;;9.59;100.00;102132.88;5009474;28;20135;-76
2023/01/01 04:20:17;;;;;;;84.03;30.85;;;;;;;9.56;100.00;102127.03;5014452;28;20128;-76
2023/01/01 04:22:43;;;;;;;78.53;31.58;;;;;;;9.54;100.00;102127.13;5002922;28;20497;-76
2023/01/01 04:25:09;;;;;;;75.45;30.77;;;;;;;9.56;100.00;102140.88;5011585;28;20040;-76
2023/01/01 04:27:36;;;;;;;85.78;30.75;;;;;;;9.61;100.00;102138.81;5019301;28;20351;-76
2023/01/01 04:30:03;;;;;;;79.35;26.33;;;;;;;9.64;100.00;102132.59;5015241;28;20033;-76
2023/01/01 04:32:29;;;;;;;87.82;28.60;;;;;;;9.63;100.00;102138.72;5007451;28;20754;-76
2023/01/01 04:34:54;;;;;;;87.90;27.65;;;;;;;9.62;100.00;102137.91;5010546;28;20056;-75
2023/01/01 04:37:20;;;;;;;102.10;32.38;;;;;;;9.63;100.00;102136.13;5014174;28;20124;-75
2023/01/01 04:39:45;;;;;;;92.22;30.90;;;;;;;9.62;100.00;102135.28;5009215;28;20026;-76
2023/01/01 04:42:11;;;;;;;93.28;29.67;;;;;;;9.64;100.00;102143.84;5008477;28;20072;-76
2023/01/01 04:44:36;;;;;;;107.70;29.50;;;;;;;9.65;100.00;102148.13;5012178;28;20025;-76
2023/01/01 04:47:02;;;;;;;93.10;30.70;;;;;;;9.64;100.00;102136.03;5009246;28;20037;-76
2023/01/01 04:49:27;;;;;;;80.28;29.33;;;;;;;9.63;100.00;102133.53;5009885;28;20040;-76
2023/01/01 04:51:52;;;;;;;84.75;30.00;;;;;;;9.63;100.00;102144.78;5009344;28;20026;-76
2023/01/01 04:54:18;;;;;;;96.63;27.95;;;;;;;9.64;100.00;102143.00;5012989;28;20478;-76
2023/01/01 04:56:43;;;;;;;89.88;31.08;;;;;;;9.63;100.00;102144.78;5015305;28;20041;-75
2023/01/01 04:59:09;;;;;;;98.65;31.85;;;;;;;9.64;100.00;102136.03;5009183;28;20038;-76
2023/01/01 05:01:34;;;;;;;86.88;29.30;;;;;;;9.59;100.00;102139.84;5010670;28;20033;-76
2023/01/01 05:04:00;;;;;;;75.25;29.35;;;;;;;9.63;100.00;102149.97;5014789;28;20056;-75
2023/01/01 05:06:27;;;;;;;73.15;30.05;;;;;;;9.64;100.00;102146.44;5009142;28;20128;-76
2023/01/01 05:08:54;;;;;;;89.78;30.77;;;;;;;9.64;100.00;102145.59;5017330;28;20116;-75
2023/01/01 05:11:22;;;;;;;74.38;28.13;;;;;;;9.61;100.00;102144.03;5007829;28;20037;-77
2023/01/01 05:13:51;;;;;;;67.13;27.20;;;;;;;9.63;100.00;102147.38;5009074;28;20029;-76
2023/01/01 05:16:19;;;;;;;77.43;26.55;;;;;;;9.64;100.00;102145.59;5012546;28;20125;-75
2023/01/01 05:18:45;;;;;;;71.25;27.85;;;;;;;9.57;100.00;102132.16;5009102;28;20512;-76
2023/01/01 05:21:16;;;;;;;95.22;32.70;;;;;;;9.51;100.00;102129.94;5007980;28;20544;-76
2023/01/01 05:23:42;;;;;;;100.65;34.25;;;;;;;9.50;100.00;102132.63;5013255;28;20030;-76
2023/01/01 05:26:13;;;;;;;92.47;29.80;;;;;;;9.54;100.00;102134.09;5010679;28;20060;-76
2023/01/01 05:28:38;;;;;;;85.60;26.55;;;;;;;9.57;100.00;102131.31;5012402;28;20121;-76
2023/01/01 05:31:08;;;;;;;77.22;29.85;;;;;;;9.56;100.00;102135.69;5013239;28;20045;-76
2023/01/01 05:33:34;;;;;;;71.28;26.40;;;;;;;9.52;100.00;102131.59;5010332;28;20033;-75
2023/01/01 05:36:01;;;;;;;94.28;27.70;;;;;;;9.55;100.00;102134.00;5005453;28;20045;-76
2023/01/01 05:38:26;;;;;;;77.90;25.05;;;;;;;9.57;100.00;102139.94;5012605;28;20036;-76
2023/01/01 05:40:52;;;;;;;64.55;23.55;;;;;;;9.58;100.00;102139.03;5007219;28;20125;-76
2023/01/01 05:43:17;;;;;;;51.70;20.63;;;;;;;9.59;100.00;102145.06;5011004;28;20143;-76
2023/01/01 05:45:43;;;;;;;78.15;24.80;;;;;;;9.57;100.00;102142.56;5013068;28;20378;-76
2023/01/01 05:48:10;;;;;;;77.07;24.08;;;;;;;9.57;100.00;102139.94;5012237;28;20033;-76
2023/01/01 05:50:35;;;;;;;73.28;26.15;;;;;;;9.57;100.00;102139.94;5008956;28;20033;-76
2023/01/01 05:53:01;;;;;;;64.72;24.38;;;;;;;9.59;100.00;102134.66;5012238;28;20030;-76
2023/01/01 05:55:27;;;;;;;64.57;23.50;;;;;;;9.60;100.00;102129.34;5009130;28;20113;-76
2023/01/01 05:57:52;;;;;;;82.97;23.80;;;;;;;9.59;100.00;102138.09;5013885;28;20144;-76
2023/01/01 06:00:18;;;;;;;88.05;25.45;;;;;;;9.59;100.00;102142.47;5006890;28;20128;-76
2023/01/01 06:02:43;;;;;;;76.68;23.23;;;;;;;9.60;100.00;102139.75;5012496;28;20072;-75
2023/01/01 06:05:09;;;;;;;70.63;24.90;;;;;;;9.57;100.00;102132.16;5012780;28;20029;-76
2023/01/01 06:07:34;;;;;;;80.35;25.60;;;;;;;9.57;100.00;102132.16;5004474;28;20026;-76
2023/01/01 06:10:00;;;;;;;73.18;24.40;;;;;;;9.59;100.00;102137.25;5010400;28;20022;-75
2023/01/01 06:12:25;;;;;;;68.35;24.65;;;;;;;9.58;100.00;102139.03;5008897;28;20068;-76
2023/01/01 06:14:51;;;;;;;74.28;24.23;;;;;;;9.57;100.00;102134.75;5007517;28;20490;-76
2023/01/01 06:17:16;;;;;;;78.63;24.02;;;;;;;9.58;100.00;102144.22;5011175;28;20033;-76
2023/01/01 06:19:41;;;;;;;80.53;26.10;;;;;;;9.58;100.00;102146.00;5013161;28;20331;-76
2023/01/01 06:22:07;;;;;;;63.60;24.77;;;;;;;9.57;100.00;102139.13;5012510;28;20034;-76
2023/01/01 06:24:32;;;;;;;73.30;24.88;;;;;;;9.58;100.00;102149.44;5015672;28;20072;-76
2023/01/01 06:26:58;;;;;;;58.13;22.45;;;;;;;9.57;100.00;102150.38;5007413;28;20041;-76
2023/01/01 06:29:23;;;;;;;59.30;22.15;;;;;;;9.58;100.00;102154.63;5015390;28;20029;-76
2023/01/01 06:31:48;;;;;;;76.25;24.90;;;;;;;9.57;100.00;102155.56;5009448;28;20555;-76
2023/01/01 06:34:14;;;;;;;72.90;24.52;;;;;;;9.57;100.00;102160.78;5009837;28;20073;-76
2023/01/01 06:36:39;;;;;;;84.90;25.48;;;;;;;9.56;100.00;102159.09;5010387;28;20446;-76
2023/01/01 06:39:05;;;;;;;78.57;23.33;;;;;;;9.55;100.00;102170.44;5016217;28;20034;-76
2023/01/01 06:41:30;;;;;;;70.38;25.50;;;;;;;9.53;100.00;102161.91;5016516;28;20071;-76
2023/01/01 06:43:57;;;;;;;80.25;25.35;;;;;;;9.54;100.00;102171.38;5012750;28;20026;-76
2023/01/01 06:46:26;;;;;;;100.50;27.55;;;;;;;9.56;100.00;102169.50;5015606;28;20029;-75
2023/01/01 06:48:54;;;;;;;86.63;26.60;;;;;;;9.52;100.00;102164.59;5017742;28;20018;-76
2023/01/01 06:51:22;;;;;;;89.85;29.33;;;;;;;9.54;100.00;102171.38;5014018;28;20043;-76
2023/01/01 06:53:49;;;;;;;82.45;28.90;;;;;;;9.56;100.00;102173.88;5016844;28;20030;-76
2023/01/01 06:56:15;;;;;;;88.30;28.05;;;;;;;9.56;100.00;102174.72;5012805;28;20041;-76
2023/01/01 06:58:40;;;;;;;119.78;28.48;;;;;;;9.54;100.00;102173.97;5011364;28;20118;-76
2023/01/01 07:01:10;;;;;;;89.68;29.33;;;;;;;9.52;100.00;102168.03;5009218;28;20034;-75
2023/01/01 07:03:36;;;;;;;78.53;25.98;;;;;;;9.56;100.00;102172.13;5006546;28;20085;-76
2023/01/01 07:06:02;;;;;;;91.70;29.20;;;;;;;9.61;100.00;102170.06;5013435;28;20511;-76
2023/01/01 07:08:27;;;;;;;99.50;28.00;;;;;;;9.60;100.00;102171.00;5011321;28;20072;-76
2023/01/01 07:10:56;;;;;;;97.35;33.50;;;;;;;9.60;100.00;102163.19;5011578;28;20034;-75
2023/01/01 07:13:21;;;;;;;86.25;30.05;;;;;;;9.62;100.00;102163.91;5010849;28;20034;-75
2023/01/01 07:15:46;;;;;;;136.48;33.05;;;;;;;9.63;100.00;102167.34;5010012;28;20037;-75
2023/01/01 07:18:12;;;;;;;81.53;28.38;;;;;;;9.65;100.00;102168.09;5010824;28;20501;-75
2023/01/01 07:20:37;;;;;;;99.55;32.38;;;;;;;9.66;100.00;102169.78;5009123;28;20481;-75
2023/01/01 07:23:03;;;;;;;110.53;29.85;;;;;;;9.67;100.00;102176.66;5013924;28;20066;-75
2023/01/01 07:25:28;;;;;;;88.78;27.02;;;;;;;9.67;100.00;102176.66;5009738;28;20044;-75
2023/01/01 07:27:53;;;;;;;98.88;29.25;;;;;;;9.68;100.00;102177.47;5011633;28;20026;-75
2023/01/01 07:30:19;;;;;;;81.90;27.25;;;;;;;9.67;100.00;102176.66;5011358;28;20100;-75
2023/01/01 07:32:44;;;;;;;87.80;28.00;;;;;;;9.69;100.00;102187.78;5012827;28;20034;-76
2023/01/01 07:35:10;;;;;;;103.55;29.58;;;;;;;9.68;100.00;102187.88;5010027;28;20048;-75
2023/01/01 07:37:35;;;;;;;100.40;30.50;;;;;;;9.69;100.00;102184.34;5011774;28;20541;-75
2023/01/01 07:40:01;;;;;;;86.38;25.08;;;;;;;9.70;100.00;102186.03;5010252;28;20025;-76
2023/01/01 07:42:26;;;;;;;111.25;28.15;;;;;;;9.70;100.00;102179.06;5012132;28;20103;-76
2023/01/01 07:44:51;;;;;;;99.53;28.95;;;;;;;9.71;100.00;102188.53;5009921;28;20087;-76
2023/01/01 07:47:23;;;;;;;144.13;32.00;;;;;;;9.72;100.00;102190.22;5015829;28;20041;-75
2023/01/01 07:49:50;;;;;;;99.13;29.77;;;;;;;9.73;100.00;102191.88;5005309;28;20041;-76
2023/01/01 07:52:16;;;;;;;99.78;31.38;;;;;;;9.74;100.00;102192.72;5015996;28;20026;-75
2023/01/01 07:54:41;;;;;;;88.38;29.40;;;;;;;9.75;100.00;102190.00;5008851;28;20520;-75
2023/01/01 07:57:06;;;;;;;102.30;34.10;;;;;;;9.75;100.00;102195.22;5011794;28;20188;-76
2023/01/01 07:59:32;;;;;;;96.70;30.88;;;;;;;9.77;100.00;102192.53;5010100;28;20470;-76
2023/01/01 08:01:58;;;;;;;92.93;33.03;;;;;;;9.78;100.00;102192.41;5010829;28;20030;-75
2023/01/01 08:04:25;;;;;;;97.78;31.70;;;;;;;9.82;100.00;102195.66;5011325;28;20041;-76
2023/01/01 08:06:52;;;;;;;72.63;30.65;;;;;;;9.81;100.00;102191.41;5013150;28;20026;-76
2023/01/01 08:09:17;;;;;;;82.80;32.30;;;;;;;9.81;100.00;102194.00;5013683;28;20558;-76
2023/01/01 08:11:43;;;;;;;80.30;30.33;;;;;;;9.82;100.00;102198.28;5010755;28;20117;-76
2023/01/01 08:14:08;;;;;;;73.72;29.67;;;;;;;9.83;100.00;102198.19;5008845;28;20040;-76
2023/01/01 08:16:33;;;;;;;79.03;31.00;;;;;;;9.83;100.00;102207.75;5012241;28;20033;-76
2023/01/01 08:18:59;;;;;;;78.30;31.77;;;;;;;9.82;100.00;102208.69;5010887;28;20099;-76
2023/01/01 08:21:24;;;;;;;76.82;29.88;;;;;;;9.84;100.00;102212.03;5012455;28;20046;-76
2023/01/01 08:23:50;;;;;;;81.70;30.60;;;;;;;9.87;100.00;102209.22;5014518;28;20036;-75
2023/01/01 08:26:17;;;;;;;74.63;30.50;;;;;;;9.87;100.00;102217.03;5012667;28;20029;-76
2023/01/01 08:28:43;;;;;;;70.22;26.60;;;;;;;9.84;100.00;102210.25;5015308;28;20482;-76
2023/01/01 08:31:08;;;;;;;70.10;29.95;;;;;;;9.90;100.00;102214.25;5039296;28;20116;-76
2023/01/01 08:33:34;;;;;;;72.90;29.55;;;;;;;9.94;100.00;102206.09;5007022;28;20045;-76
2023/01/01 08:35:59;;;;;;;80.10;29.52;;;;;;;9.93;100.00;102204.44;5004833;28;20026;-76
2023/01/01 08:38:25;;;;;;;71.65;29.73;;;;;;;9.97;100.00;102205.09;5011726;28;20038;-76
2023/01/01 08:40:51;;;;;;;77.55;28.25;;;;;;;10.01;100.00;102206.56;5015249;28;20033;-76
2023/01/01 08:43:17;;;;;;;71.20;27.38;;;;;;;10.05;100.00;102205.44;5009798;28;20473;-76
2023/01/01 08:45:42;;;;;;;73.15;28.88;;;;;;;10.07;100.00;102200.97;5011633;28;20030;-75
2023/01/01 08:48:07;;;;;;;69.13;28.00;;;;;;;10.10;100.00;102211.19;5013342;28;20464;-76
2023/01/01 08:50:33;;;;;;;70.13;26.83;;;;;;;10.11;100.00;102218.06;5008509;28;20537;-76
2023/01/01 08:52:58;;;;;;;72.57;27.60;;;;;;;10.14;100.00;102217.88;5010168;28;20624;-76
2023/01/01 08:55:24;;;;;;;76.32;27.67;;;;;;;10.16;100.00;102216.00;5007595;28;20029;-76
2023/01/01 08:57:49;;;;;;;66.75;28.00;;;;;;;10.17;100.00;102215.06;5006071;28;20050;-73
2023/01/01 09:00:16;;;;;;;78.13;30.73;;;;;;;10.21;100.00;102210.53;5006408;28;20116;-76
2023/01/01 09:02:41;;;;;;;77.55;28.83;;;;;;;10.25;100.00;102212.84;5042391;28;20120;-72
2023/01/01 09:05:08;;;;;;;74.85;29.58;;;;;;;10.28;100.00;102214.41;5009203;28;20034;-77
2023/01/01 09:07:33;;;;;;;74.30;30.25;;;;;;;10.32;100.00;102215.03;5007115;28;20038;-74
2023/01/01 09:09:59;;;;;;;79.13;31.02;;;;;;;10.34;100.00;102219.22;5007072;28;20018;-75
2023/01/01 09:12:24;;;;;;;70.07;32.45;;;;;;;10.35;100.00;102218.28;5011867;28;20021;-72
2023/01/01 09:14:49;;;;;;;71.22;30.40;;;;;;;10.38;100.00;102214.63;5009375;28;20397;-72
2023/01/01 09:17:15;;;;;;;84.65;34.30;;;;;;;10.41;100.00;102219.63;5006343;28;20045;-76
2023/01/01 09:19:40;;;;;;;80.07;32.45;;;;;;;10.43;100.00;102217.75;5008289;28;20458;-76
2023/01/01 09:22:09;;;;;;;82.05;34.63;;;;;;;10.43;100.00;102215.13;5008302;28;20036;-76
2023/01/01 09:24:35;;;;;;;80.75;35.72;;;;;;;10.43;100.00;102217.75;5010971;28;20529;-76
2023/01/01 09:27:00;;;;;;;97.13;41.00;;;;;;;10.46;100.00;102215.78;5007904;28;20059;-74
2023/01/01 09:29:26;;;;;;;94.13;40.10;;;;;;;10.46;100.00;102212.34;5005184;28;20034;-74
2023/01/01 09:31:51;;;;;;;93.45;43.47;;;;;;;10.45;100.00;102221.94;5008891;28;20034;-74
2023/01/01 09:34:16;;;;;;;102.00;45.53;;;;;;;10.50;100.00;102213.81;5008982;28;20041;-76
2023/01/01 09:36:42;;;;;;;105.30;44.33;;;;;;;10.55;100.00;102219.56;5004466;28;20034;-77
2023/01/01 09:39:14;;;;;;;109.50;44.03;;;;;;;10.52;100.00;102212.78;5009272;28;20057;-74
2023/01/01 09:41:48;;;;;;;106.28;47.03;;;;;;;10.53;100.00;102218.81;5008520;28;20045;-77
2023/01/01 09:44:35;;;;;;;106.05;46.33;;;;;;;10.58;100.00;102216.75;5005569;28;20038;-78
2023/01/01 09:47:04;;;;;;;103.68;47.40;;;;;;;10.65;100.00;102210.19;5008842;28;20472;-77
2023/01/01 09:49:36;;;;;;;104.82;45.25;;;;;;;10.64;100.00;102208.50;5007135;28;20022;-78
2023/01/01 09:52:04;;;;;;;102.78;45.78;;;;;;;10.73;100.00;102210.50;5007435;28;20126;-77
2023/01/01 09:54:39;;;;;;;100.28;47.17;;;;;;;10.76;100.00;102212.91;5003232;28;20022;-76
2023/01/01 09:57:09;;;;;;;109.68;48.55;;;;;;;10.78;100.00;102207.59;5007823;28;20126;-77
2023/01/01 09:59:34;;;;;;;96.72;43.65;;;;;;;10.75;100.00;102203.44;5004239;28;20044;-77
2023/01/01 10:02:12;;;;;;;89.95;43.60;;;;;;;10.75;100.00;102200.81;5007727;28;20030;-77
2023/01/01 10:05:05;;;;;;;91.28;44.35;;;;;;;10.74;100.00;102199.16;5008347;28;20038;-77
2023/01/01 10:07:46;;;;;;;99.95;46.05;;;;;;;10.71;100.00;102196.75;5006190;28;20036;-77
2023/01/01 10:10:28;;;;;;;94.05;45.22;;;;;;;10.82;100.00;102193.41;5012334;28;20022;-78
2023/01/01 10:13:25;;;;;;;90.05;45.45;;;;;;;10.79;100.00;102194.47;5008938;28;20033;-77
2023/01/01 10:16:17;;;;;;;107.07;50.72;;;;;;;10.71;100.00;102183.72;5011151;28;20026;-76
2023/01/01 10:18:45;;;;;;;109.82;50.95;;;;;;;10.83;100.00;102190.72;5015060;28;20100;-74
2023/01/01 10:21:31;;;;;;;98.90;49.60;;;;;;;10.89;100.00;102185.03;5013828;28;20037;-74
2023/01/01 10:24:04;;;;;;;106.93;50.40;;;;;;;10.91;100.00;102185.78;5008943;28;20025;-74
2023/01/01 10:26:33;;;;;;;97.90;48.22;;;;;;;10.92;100.00;102184.84;5011814;28;20037;-74
2023/01/01 10:29:26;;;;;;;101.97;49.42;;;;;;;10.92;100.00;102189.22;5012294;28;20393;-73
2023/01/01 10:31:54;;;;;;;102.70;49.72;;;;;;;10.97;100.00;102187.13;5013808;28;20133;-74
2023/01/01 10:34:24;;;;;;;100.72;49.33;;;;;;;10.88;100.00;102183.38;5018174;28;20136;-74
2023/01/01 10:36:52;;;;;;;99.30;50.55;;;;;;;10.96;100.00;102181.09;5012097;28;20612;-74
2023/01/01 10:39:18;;;;;;;95.57;49.55;;;;;;;11.05;100.00;102184.00;5009876;28;20030;-71
2023/01/01 10:41:44;;;;;;;101.32;49.72;;;;;;;11.01;100.00;102183.38;5011172;28;20121;-73
2023/01/01 10:44:13;;;;;;;92.50;47.83;;;;;;;11.03;100.00;102176.28;5011747;28;20335;-73
2023/01/01 10:46:50;;;;;;;97.63;48.40;;;;;;;11.04;100.00;102177.13;5010375;28;20037;-73
2023/01/01 10:49:16;;;;;;;97.10;47.90;;;;;;;11.02;100.00;102173.78;5013374;28;20034;-74
2023/01/01 10:51:44;;;;;;;86.45;47.35;;;;;;;10.85;100.00;102169.75;5010548;28;20037;-72
2023/01/01 10:54:33;;;;;;;93.10;48.20;;;;;;;10.79;100.00;102165.78;5011548;28;20026;-74
2023/01/01 10:57:11;;;;;;;95.35;50.20;;;;;;;10.76;100.00;102166.00;5011000;28;20062;-74
2023/01/01 10:59:40;;;;;;;86.05;46.30;;;;;;;10.86;100.00;102159.22;5009796;28;20080;-74
2023/01/01 11:02:26;;;;;;;96.55;48.15;;;;;;;10.91;100.00;102157.09;5011307;28;20030;-74
2023/01/01 11:05:11;;;;;;;89.63;47.25;;;;;;;11.00;100.00;102166.06;5008369;28;20021;-74
2023/01/01 11:07:39;;;;;;;99.80;48.78;;;;;;;11.05;100.00;102158.75;5009227;28;20489;-74
2023/01/01 11:10:06;;;;;;;91.45;47.80;;;;;;;11.06;100.00;102160.41;5012187;28;20037;-74
2023/01/01 11:12:36;;;;;;;89.20;48.33;;;;;;;11.13;100.00;102156.44;5008095;28;20030;-74
2023/01/01 11:15:04;;;;;;;91.53;49.20;;;;;;;11.14;100.00;102157.28;5012067;28;20026;-74
2023/01/01 11:17:32;;;;;;;87.50;47.58;;;;;;;11.16;100.00;102150.19;5008840;28;20238;-74
2023/01/01 11:19:59;;;;;;;87.07;46.22;;;;;;;11.18;100.00;102141.31;5010444;28;20553;-74